Time;durP1;ratioP1;P1;durP2;ratioP2;P2;SDS_P1;SDS_P2;PMS_P1;PMS_P2;Temp;Humidity;BMP_temperature;BMP_pressure;BME280_temperature;BME280_humidity;BME280_pressure;Samples;Min_cycle;Max_cycle;Signal;HPM_P1;HPM_P2
2022/05/18 00:01:10;;;;;;;4.78;2.90;;;18.10;99.90;;;19.41;94.68;165658.06;4976415;28;20505;-82
2022/05/18 00:03:44;;;;;;;6.00;3.13;;;18.40;99.90;;;19.50;93.46;165680.88;4976037;28;20570;-83
2022/05/18 00:06:11;;;;;;;6.10;2.80;;;18.40;99.90;;;19.54;92.36;165691.66;4975832;28;20038;-84
2022/05/18 00:08:37;;;;;;;6.13;2.72;;;18.50;99.90;;;19.66;91.10;165722.50;4975589;28;20022;-83
2022/05/18 00:11:16;;;;;;;4.60;2.42;;;18.60;99.90;;;19.74;89.65;165744.03;4975343;28;20062;-84
2022/05/18 00:13:46;;;;;;;5.65;3.03;;;18.70;99.90;;;19.81;88.84;165764.16;4975476;28;20054;-86
2022/05/18 00:16:15;;;;;;;6.60;2.65;;;18.80;99.90;;;19.84;88.79;165770.91;4975341;28;20570;-84
2022/05/18 00:18:41;;;;;;;5.63;2.30;;;18.80;99.90;;;19.79;89.04;165757.44;4974840;28;20053;-84
2022/05/18 00:21:07;;;;;;;8.07;2.65;;;18.70;99.90;;;19.72;88.37;165739.97;4976062;28;20110;-84
2022/05/18 00:23:34;;;;;;;6.50;2.70;;;18.70;99.90;;;19.62;88.85;165711.81;4974880;28;20113;-84
2022/05/18 00:26:01;;;;;;;5.18;2.40;;;18.60;99.90;;;19.62;89.19;165711.81;4976121;28;20030;-82
2022/05/18 00:28:27;;;;;;;5.22;2.70;;;18.60;99.90;;;19.62;88.90;165711.81;4974480;28;20031;-85
2022/05/18 00:30:53;;;;;;;4.70;2.50;;;18.60;99.90;;;19.55;88.83;165694.34;4976678;28;20086;-84
2022/05/18 00:33:20;;;;;;;4.60;2.28;;;18.50;99.90;;;19.54;89.52;165691.66;4975155;28;20434;-83
2022/05/18 00:35:46;;;;;;;3.22;2.08;;;18.40;99.90;;;19.52;88.91;165686.28;4975030;28;20475;-83
2022/05/18 00:38:13;;;;;;;6.40;2.58;;;18.40;99.90;;;19.53;88.86;165688.94;4991387;28;20026;-84
2022/05/18 00:40:46;;;;;;;3.25;2.13;;;18.40;99.90;;;19.50;89.13;165679.53;4991492;28;20038;-84
2022/05/18 00:43:31;;;;;;;6.68;2.70;;;18.40;99.90;;;19.43;88.86;165662.06;4975142;28;20031;-84
2022/05/18 00:46:08;;;;;;;7.55;2.25;;;18.30;99.90;;;19.41;89.07;165658.06;4990991;28;20031;-84
2022/05/18 00:48:34;;;;;;;4.07;2.33;;;18.30;99.90;;;19.43;88.32;165663.44;4976980;28;20570;-85
2022/05/18 00:51:09;;;;;;;7.72;2.75;;;18.40;99.90;;;19.51;87.44;165683.59;4976302;28;20122;-85
2022/05/18 00:53:50;;;;;;;9.33;2.50;;;18.40;99.90;;;19.54;87.22;165691.66;4976480;28;20046;-85
2022/05/18 00:56:29;;;;;;;5.50;2.20;;;18.50;99.90;;;19.53;87.42;165688.94;4994795;28;20286;-81
2022/05/18 00:59:08;;;;;;;4.18;2.35;;;18.40;99.90;;;19.52;86.63;165686.28;4992923;28;20030;-83
2022/05/18 01:01:34;;;;;;;4.65;2.40;;;18.50;99.90;;;19.55;86.83;165694.34;4974880;28;20035;-82
2022/05/18 01:04:04;;;;;;;5.32;2.20;;;18.50;99.90;;;19.50;87.03;165679.53;4974086;28;20031;-83
2022/05/18 01:07:01;;;;;;;3.53;2.22;;;18.40;99.90;;;19.50;86.72;165680.88;4975581;28;20061;-83
2022/05/18 01:09:44;;;;;;;;;;;18.50;99.90;;;19.56;85.76;165697.00;4990962;28;20035;-84
2022/05/18 01:12:18;;;;;;;4.53;2.65;;;18.50;99.90;;;19.62;85.64;165711.81;4974453;28;20323;-85
2022/05/18 01:15:05;;;;;;;6.65;2.65;;;18.60;99.90;;;19.58;86.26;165701.06;4959582;28;20510;-83
2022/05/18 01:17:43;;;;;;;4.45;2.08;;;18.50;99.90;;;19.45;86.38;165668.81;4959691;29;20050;-84
2022/05/18 01:20:17;;;;;;;4.63;2.63;;;18.50;99.90;;;19.52;86.04;165684.94;4959859;28;20466;-84
2022/05/18 01:23:29;;;;;;;5.47;2.70;;;18.50;99.90;;;19.52;85.89;165684.94;4960595;28;20034;-84
2022/05/18 01:26:08;;;;;;;4.78;2.08;;;18.50;99.90;;;19.41;86.62;165658.06;4958704;28;20063;-83
2022/05/18 01:28:42;;;;;;;5.63;2.70;;;18.50;99.90;;;19.37;86.26;165645.91;4958622;29;20045;-85
2022/05/18 01:31:09;;;;;;;4.63;2.28;;;18.40;99.90;;;19.37;86.48;165647.25;4958667;28;20031;-83
2022/05/18 01:33:36;;;;;;;3.38;2.25;;;18.40;99.90;;;19.34;86.54;165639.22;4960092;28;20106;-83
2022/05/18 01:36:05;;;;;;;5.82;3.13;;;18.30;99.90;;;19.33;86.41;165636.50;4959154;28;20031;-82
2022/05/18 01:38:32;;;;;;;8.13;2.83;;;18.30;99.90;;;19.29;86.70;165624.44;4959207;28;20023;-84
2022/05/18 01:41:18;;;;;;;6.20;2.70;;;18.30;99.90;;;19.24;86.97;165612.34;4958771;28;20463;-84
2022/05/18 01:44:01;;;;;;;4.85;2.22;;;18.20;99.90;;;19.21;87.06;165604.28;4959221;28;20428;-84
2022/05/18 01:46:32;;;;;;;6.32;2.60;;;18.20;99.90;;;19.17;87.09;165593.53;4960824;28;20046;-82
2022/05/18 01:48:59;;;;;;;4.90;2.40;;;18.20;99.90;;;19.14;87.17;165584.13;4979963;28;20067;-79
2022/05/18 01:51:47;;;;;;;4.40;2.35;;;18.20;99.90;;;19.10;87.57;165573.44;4979956;28;20043;-81
2022/05/18 01:54:15;;;;;;;6.63;2.83;;;18.10;99.90;;;19.00;87.78;165546.56;4980959;28;20027;-81
2022/05/18 01:56:42;;;;;;;4.65;2.25;;;18.00;99.90;;;18.99;88.02;165543.88;4980279;28;20023;-82
2022/05/18 01:59:08;;;;;;;3.92;2.50;;;18.00;99.90;;;18.94;88.32;165531.81;4981209;28;20035;-80
2022/05/18 02:01:36;;;;;;;4.53;2.65;;;18.00;99.90;;;18.91;87.97;165523.75;4980053;28;20050;-80
2022/05/18 02:04:03;;;;;;;3.92;2.17;;;18.00;99.90;;;18.87;88.44;165514.34;4977463;28;20063;-85
2022/05/18 02:06:30;;;;;;;9.07;3.08;;;17.90;99.90;;;18.86;88.22;165511.66;4960081;28;20031;-82
2022/05/18 02:08:58;;;;;;;3.05;2.20;;;17.90;99.90;;;18.86;88.20;165511.66;4975318;28;20031;-81
2022/05/18 02:11:24;;;;;;;4.55;2.72;;;17.90;99.90;;;18.93;87.66;165529.09;4974263;28;20034;-83
2022/05/18 02:13:51;;;;;;;5.32;2.38;;;17.90;99.90;;;18.94;87.57;165531.81;4979387;28;20503;-83
2022/05/18 02:16:20;;;;;;;7.90;2.55;;;17.90;99.90;;;18.94;87.42;165533.09;4978290;28;20035;-84
2022/05/18 02:18:46;;;;;;;6.18;2.30;;;17.90;99.90;;;18.89;87.93;165519.72;4979737;28;20031;-83
2022/05/18 02:21:12;;;;;;;4.35;2.70;;;18.00;99.90;;;18.93;87.45;165529.09;4978098;28;20023;-83
2022/05/18 02:23:40;;;;;;;5.70;2.15;;;17.90;99.90;;;18.83;87.97;165502.25;4978291;28;20030;-85
2022/05/18 02:26:15;;;;;;;6.75;2.42;;;17.90;99.90;;;18.90;87.70;165522.41;4978526;28;20038;-82
2022/05/18 02:28:43;;;;;;;5.50;2.67;;;17.90;99.90;;;18.88;87.43;165515.66;4980463;28;20050;-81
2022/05/18 02:31:10;;;;;;;4.15;2.53;;;17.90;99.90;;;18.90;87.10;165521.06;4983128;28;20045;-87
2022/05/18 02:33:36;;;;;;;6.55;2.08;;;17.90;99.90;;;18.94;86.87;165533.09;4978794;28;20120;-82
2022/05/18 02:36:03;;;;;;;6.07;2.50;;;17.90;99.90;;;19.00;87.00;165547.91;4976905;28;20089;-83
2022/05/18 02:38:29;;;;;;;4.65;2.28;;;18.00;99.90;;;18.93;86.72;165529.09;4993417;28;20028;-82
2022/05/18 02:40:59;;;;;;;5.40;2.22;;;18.00;99.90;;;19.04;86.18;165557.31;4977291;28;20029;-83
2022/05/18 02:43:26;;;;;;;3.38;2.75;;;18.00;99.90;;;18.97;86.25;165539.88;4977396;28;20065;-81
2022/05/18 02:46:28;;;;;;;6.22;2.75;;;18.10;99.90;;;19.01;86.11;165550.56;4978970;28;20035;-84
2022/05/18 02:48:54;;;;;;;6.30;2.38;;;18.00;99.90;;;18.98;86.24;165542.50;4977771;28;20488;-84
2022/05/18 02:51:22;;;;;;;5.43;2.47;;;18.10;99.90;;;19.02;85.92;165553.28;4990818;28;20122;-84
2022/05/18 02:53:50;;;;;;;6.68;2.75;;;18.10;99.90;;;19.02;85.52;165553.28;4978605;28;20041;-83
2022/05/18 02:56:26;;;;;;;5.85;2.40;;;18.10;99.90;;;19.08;85.29;165569.38;4978213;28;20451;-83
2022/05/18 02:58:56;;;;;;;4.22;2.40;;;18.10;99.90;;;19.00;85.52;165547.91;4996021;28;20033;-84
2022/05/18 03:01:28;;;;;;;6.20;2.20;;;18.10;99.90;;;18.94;85.52;165533.09;4981949;28;20027;-85
2022/05/18 03:03:55;;;;;;;5.72;2.75;;;18.00;99.90;;;18.96;85.32;165537.16;4982646;28;20562;-86
2022/05/18 03:06:25;;;;;;;4.00;2.40;;;18.00;99.90;;;18.94;85.08;165531.81;4994882;28;20031;-85
2022/05/18 03:08:51;;;;;;;5.78;2.33;;;18.10;99.90;;;19.01;84.66;165549.25;4979741;28;20046;-86
2022/05/18 03:11:19;;;;;;;3.53;2.22;;;18.10;99.90;;;19.02;84.52;165553.28;4988143;28;20035;-83
2022/05/18 03:13:45;;;;;;;6.00;2.33;;;18.10;99.90;;;19.07;84.24;165566.66;4996568;28;20086;-79
2022/05/18 03:16:11;;;;;;;7.32;2.72;;;18.20;99.90;;;19.03;84.37;165554.63;4978491;28;20109;-85
2022/05/18 03:18:37;;;;;;;4.03;2.53;;;18.10;99.90;;;19.07;84.17;165565.38;4975283;28;20193;-87
2022/05/18 03:23:50;;;;;;;4.32;2.13;;;18.10;99.90;;;19.03;84.59;165554.63;4976262;28;20041;-87
2022/05/18 03:26:22;;;;;;;4.35;2.33;;;18.10;99.90;;;19.05;84.06;165559.97;4990760;28;20039;-86
2022/05/18 03:28:55;;;;;;;3.55;2.38;;;18.00;99.90;;;19.04;84.30;165557.31;4975498;28;20035;-87
2022/05/18 03:31:26;;;;;;;3.90;2.30;;;18.10;99.90;;;19.06;83.86;165562.66;4974923;28;20031;-85
2022/05/18 03:33:58;;;;;;;5.78;2.53;;;18.10;99.90;;;19.04;84.36;165558.63;4975016;28;20121;-88
2022/05/18 03:36:25;;;;;;;4.88;2.40;;;18.10;99.90;;;19.03;84.08;165555.97;4975591;28;20334;-89
2022/05/18 03:38:53;;;;;;;5.75;2.45;;;18.10;99.90;;;19.10;83.75;165573.44;4976529;28;20054;-85
2022/05/18 03:41:20;;;;;;;5.35;2.45;;;18.10;99.90;;;19.19;83.29;165597.59;4975630;28;20030;-85
2022/05/18 03:43:47;;;;;;;7.80;2.70;;;18.30;99.90;;;19.24;82.88;165611.00;4976160;28;20037;-83
2022/05/18 03:46:15;;;;;;;4.93;2.20;;;18.30;99.90;;;19.30;82.94;165627.09;4974698;28;20038;-85
2022/05/18 03:48:42;;;;;;;6.45;2.75;;;18.30;99.90;;;19.26;83.10;165617.75;4974960;28;20110;-86
2022/05/18 03:51:12;;;;;;;6.38;2.72;;;18.30;99.90;;;19.23;82.97;165609.66;4974794;28;20038;-88
2022/05/18 03:53:38;;;;;;;4.32;2.28;;;18.30;99.90;;;19.23;83.02;165608.34;4975819;28;20031;-85
2022/05/18 03:56:05;;;;;;;4.93;2.22;;;18.30;99.90;;;19.26;82.85;165616.41;4974117;28;20091;-87
2022/05/18 03:58:32;;;;;;;5.15;1.98;;;18.30;99.90;;;19.24;83.40;165611.00;4973946;28;20506;-87
2022/05/18 04:01:08;;;;;;;4.00;2.35;;;18.20;99.90;;;19.18;83.84;165594.88;4974207;28;20031;-86
2022/05/18 04:03:43;;;;;;;5.72;2.47;;;18.20;99.90;;;19.25;83.32;165615.06;4974326;28;20102;-85
2022/05/18 04:06:10;;;;;;;;;;;18.30;99.90;;;19.26;83.09;165616.41;4974445;28;20034;-86
2022/05/18 04:08:36;;;;;;;;;;;18.30;99.90;;;19.26;83.21;165617.75;4990759;28;19910;-85
2022/05/18 04:11:03;;;;;;;;;;;18.30;99.90;;;19.35;82.65;165641.91;4982209;28;19910;-86
2022/05/18 04:13:30;;;;;;;8.95;2.67;;;18.40;99.90;;;19.37;82.66;165645.91;4974310;28;19996;-87
2022/05/18 04:15:56;;;;;;;4.32;2.33;;;18.40;99.90;;;19.41;82.67;165658.06;4990660;28;20065;-87
2022/05/18 04:18:23;;;;;;;6.15;2.50;;;18.40;99.90;;;19.46;82.58;165671.47;4974970;28;20394;-88
2022/05/18 04:20:53;;;;;;;4.00;2.40;;;18.50;99.90;;;19.48;82.76;165675.53;4974093;28;20126;-84
2022/05/18 04:23:23;;;;;;;5.95;2.55;;;18.50;99.90;;;19.55;82.74;165694.34;4974404;28;20105;-82
2022/05/18 04:25:49;;;;;;;5.25;2.65;;;18.50;99.90;;;19.57;82.15;165699.69;4975481;28;20513;-87
2022/05/18 04:28:15;;;;;;;3.42;3.13;;;18.60;99.90;;;19.56;82.36;165695.66;4974242;28;20030;-88
2022/05/18 04:30:45;;;;;;;4.65;2.30;;;18.70;99.90;;;19.56;81.84;165695.66;4974756;28;20510;-85
2022/05/18 04:33:18;;;;;;;5.25;2.17;;;18.70;99.90;;;19.64;82.40;165718.50;4973621;28;20114;-88
2022/05/18 04:35:45;;;;;;;9.10;3.00;;;18.70;99.90;;;19.80;81.00;165760.16;4990068;28;20035;-85
2022/05/18 04:38:11;;;;;;;9.15;2.65;;;18.80;99.90;;;19.77;81.92;165752.09;4974202;28;20418;-87
2022/05/18 04:40:37;;;;;;;9.00;2.67;;;18.90;99.90;;;19.86;80.88;165777.63;4975529;28;20031;-88
2022/05/18 04:43:03;;;;;;;3.38;2.25;;;19.00;99.90;;;19.98;80.66;165808.50;4975392;28;20026;-86
2022/05/18 04:45:29;;;;;;;6.32;3.22;;;19.00;99.90;;;20.08;80.25;165835.38;4974747;28;20033;-85
2022/05/18 04:47:55;;;;;;;4.13;2.28;;;19.10;99.90;;;20.09;80.65;165838.06;4978312;28;20081;-89
2022/05/18 04:50:22;;;;;;;5.78;2.50;;;19.20;99.90;;;20.08;80.94;165835.38;4994370;28;20039;-86
2022/05/18 04:52:48;;;;;;;5.68;2.55;;;19.10;99.90;;;20.15;80.44;165854.19;4994497;28;20035;-89
2022/05/18 04:55:15;;;;;;;7.68;2.67;;;19.10;99.90;;;20.22;79.46;165873.00;4994696;28;20030;-84
2022/05/18 04:57:42;;;;;;;5.32;2.17;;;19.20;99.90;;;20.31;79.05;165897.25;4981960;28;20502;-88
2022/05/18 05:00:14;;;;;;;4.75;2.50;;;19.40;99.90;;;20.47;78.46;165940.25;4979236;28;20113;-87
2022/05/18 05:02:41;;;;;;;5.15;2.72;;;19.50;99.90;;;20.61;77.81;165976.53;4978122;28;20027;-88
2022/05/18 05:05:11;;;;;;;5.85;2.40;;;19.60;99.90;;;20.75;76.66;166012.78;4980003;28;20443;-87
2022/05/18 05:07:37;;;;;;;4.20;2.28;;;19.80;99.90;;;21.02;76.23;166085.38;4979873;28;20037;-87
2022/05/18 05:10:04;;;;;;;5.95;2.67;;;20.00;99.90;;;21.07;75.10;166098.81;4996004;28;20098;-88
2022/05/18 05:12:30;;;;;;;7.63;2.60;;;20.00;99.90;;;21.18;75.12;166127.09;4979520;28;20030;-85
2022/05/18 05:14:56;;;;;;;6.60;2.35;;;20.20;99.90;;;21.34;74.77;166171.47;4979737;28;20042;-88
2022/05/18 05:17:22;;;;;;;7.50;2.58;;;20.30;99.90;;;21.35;74.20;166172.84;4997175;28;20026;-87
2022/05/18 05:19:48;;;;;;;5.05;2.33;;;20.30;99.90;;;21.51;74.47;166215.84;4980200;28;20042;-89
2022/05/18 05:22:17;;;;;;;4.32;2.35;;;20.40;99.90;;;21.67;74.14;166258.88;4980797;28;20022;-89
2022/05/18 05:24:43;;;;;;;5.75;2.35;;;20.50;99.90;;;21.84;72.17;166303.22;4981563;28;20030;-86
2022/05/18 05:27:09;;;;;;;3.38;2.08;;;20.60;99.90;;;21.99;71.34;166343.66;4982713;28;20030;-85
2022/05/18 05:29:35;;;;;;;6.13;2.53;;;20.80;99.90;;;21.92;71.69;166324.81;4986926;28;20057;-83
2022/05/18 05:32:09;;;;;;;4.78;2.40;;;20.80;99.90;;;22.11;70.81;166374.56;4981750;28;20031;-88
2022/05/18 05:34:36;;;;;;;5.20;2.60;;;21.00;99.90;;;22.10;70.72;166373.22;4995601;28;20023;-88
2022/05/18 05:37:03;;;;;;;5.25;2.60;;;21.10;99.90;;;22.26;71.31;166416.28;4980683;28;20074;-83
2022/05/18 05:39:29;;;;;;;6.10;2.60;;;21.20;99.90;;;22.40;69.55;166453.94;4980712;28;20026;-87
2022/05/18 05:41:55;;;;;;;4.50;2.10;;;21.40;99.90;;;22.42;69.87;166457.97;4995696;28;20027;-87
2022/05/18 05:44:21;;;;;;;4.95;2.35;;;21.40;99.90;;;22.72;68.17;166538.75;4980431;28;20443;-88
2022/05/18 05:46:47;;;;;;;9.05;2.35;;;21.60;99.90;;;22.72;68.56;166537.41;4978631;28;20042;-87
2022/05/18 05:49:13;;;;;;;5.47;2.13;;;21.70;99.90;;;22.74;67.94;166544.13;4979276;28;20465;-87
2022/05/18 05:51:39;;;;;;;7.47;2.80;;;21.80;99.90;;;23.03;67.01;166620.81;4978853;28;20042;-87
2022/05/18 05:54:05;;;;;;;4.85;2.47;;;21.90;99.90;;;23.07;66.70;166632.94;4977153;28;20034;-87
2022/05/18 05:56:32;;;;;;;3.80;2.60;;;22.00;99.90;;;23.00;67.56;166614.09;4977298;28;20035;-87
2022/05/18 05:58:58;;;;;;;4.50;2.50;;;22.10;99.90;;;23.10;66.53;166639.66;4979430;28;20125;-86
2022/05/18 06:01:24;;;;;;;5.22;2.00;;;22.20;99.90;;;23.17;66.51;166657.16;4979361;28;20023;-85
2022/05/18 06:03:50;;;;;;;5.60;2.50;;;22.20;99.90;;;23.27;66.61;166684.09;4977515;28;20090;-85
2022/05/18 06:06:19;;;;;;;4.80;2.47;;;22.30;99.90;;;23.51;65.74;166750.09;4993245;28;20071;-85
2022/05/18 06:08:45;;;;;;;6.68;2.30;;;22.50;99.90;;;23.43;65.46;166728.56;4993748;28;20125;-88
2022/05/18 06:11:12;;;;;;;6.10;2.35;;;22.50;99.90;;;23.59;64.74;166770.28;4978587;28;20038;-86
2022/05/18 06:13:40;;;;;;;4.47;2.08;;;22.60;99.90;;;23.94;63.47;166863.19;4979769;28;20041;-89
2022/05/18 06:16:08;;;;;;;4.30;2.40;;;22.70;99.90;;;23.77;63.27;166817.38;4996104;28;20086;-88
2022/05/18 06:18:35;;;;;;;4.57;2.03;;;22.80;99.90;;;24.01;63.52;166882.03;4979342;28;20538;-88
2022/05/18 06:21:02;;;;;;;6.03;2.22;;;23.00;99.90;;;24.23;62.02;166939.97;4977845;28;20031;-88
2022/05/18 06:23:29;;;;;;;5.60;2.40;;;23.10;99.90;;;24.08;61.73;166900.91;4978191;28;20101;-85
2022/05/18 06:26:03;;;;;;;6.32;2.33;;;23.20;99.90;;;24.18;63.20;166927.84;4980274;28;20039;-88
2022/05/18 06:28:29;;;;;;;5.40;1.92;;;23.20;99.90;;;24.42;61.08;166991.16;4979509;28;20071;-88
2022/05/18 06:30:55;;;;;;;4.30;1.92;;;23.40;99.90;;;24.75;60.10;167080.06;4995964;28;20133;-86
2022/05/18 06:33:21;;;;;;;3.60;1.95;;;23.60;99.90;;;25.03;59.73;167154.19;4979288;28;20035;-87
2022/05/18 06:35:51;;;;;;;5.32;2.30;;;23.90;99.90;;;25.14;58.64;167183.84;4978378;28;20468;-88
2022/05/18 06:38:20;;;;;;;4.93;2.00;;;24.00;99.90;;;25.06;58.39;167162.25;4978184;28;20504;-88
2022/05/18 06:43:32;;;;;;;4.75;2.17;;;24.20;99.90;;;25.25;57.80;167212.09;4981220;28;20038;-87
2022/05/18 06:46:01;;;;;;;6.05;2.35;;;24.20;99.90;;;25.07;59.58;167164.97;4978756;28;20026;-87
2022/05/18 06:48:29;;;;;;;6.68;2.25;;;24.10;99.90;;;25.61;57.34;167309.19;4995859;28;20046;-89
2022/05/18 06:50:54;;;;;;;5.22;2.20;;;24.40;99.90;;;25.68;57.63;167328.06;4979604;28;20050;-89
2022/05/18 06:53:21;;;;;;;4.15;2.13;;;24.60;99.90;;;25.56;56.78;167295.66;4995493;28;20039;-88
2022/05/18 06:55:49;;;;;;;4.35;1.83;;;24.70;98.70;;;26.25;56.12;167480.41;4996025;28;20561;-88
2022/05/18 06:58:17;;;;;;;7.50;2.45;;;25.00;99.30;;;26.23;54.96;167475.03;4995801;28;20479;-88
2022/05/18 07:00:43;;;;;;;4.43;2.20;;;25.10;95.80;;;26.05;55.58;167426.41;4980771;28;20081;-88
2022/05/18 07:03:10;;;;;;;4.03;2.28;;;25.00;95.60;;;26.20;55.10;167466.88;4979868;28;20230;-87
2022/05/18 07:05:39;;;;;;;3.22;2.00;;;25.10;94.50;;;26.22;55.28;167470.97;4980213;28;20498;-85
2022/05/18 07:08:06;;;;;;;5.38;2.30;;;25.20;94.90;;;26.40;53.72;167519.47;4978556;28;20033;-88
2022/05/18 07:10:32;;;;;;;5.32;2.00;;;25.30;92.00;;;26.83;53.17;167634.13;4994222;28;20057;-85
2022/05/18 07:12:58;;;;;;;3.50;1.88;;;25.60;92.00;;;26.60;54.46;167574.75;4978941;28;20039;-87
2022/05/18 07:15:24;;;;;;;5.50;1.83;;;25.70;92.40;;;27.11;52.86;167709.63;4994446;28;20035;-83
2022/05/18 07:17:50;;;;;;;5.20;2.13;;;25.80;91.70;;;27.46;51.51;167802.75;4994866;28;20027;-85
2022/05/18 07:20:16;;;;;;;2.78;1.63;;;26.10;90.30;;;27.59;52.02;167839.19;4979080;28;20034;-88
2022/05/18 07:22:42;;;;;;;6.28;1.98;;;26.20;91.10;;;27.63;49.60;167848.63;4979146;28;20034;-84
2022/05/18 07:25:11;;;;;;;4.70;1.77;;;26.40;84.60;;;27.95;49.65;167933.59;4979478;28;20034;-89
2022/05/18 07:27:37;;;;;;;5.53;1.90;;;26.60;83.70;;;28.30;48.83;168028.09;4979669;28;20058;-88
2022/05/18 07:30:04;;;;;;;6.97;1.73;;;26.80;81.60;;;28.78;48.28;168156.38;4981075;28;20031;-88
2022/05/18 07:32:30;;;;;;;2.88;1.85;;;27.10;82.30;;;28.88;47.28;168183.34;4978820;28;20035;-85
2022/05/18 07:34:56;;;;;;;6.15;2.08;;;27.30;78.50;;;28.88;47.86;168183.34;4980413;28;20038;-90
2022/05/18 07:37:23;;;;;;;3.20;1.65;;;27.40;78.70;;;28.81;46.22;168164.47;4995643;28;20034;-88
2022/05/18 07:39:51;;;;;;;5.63;1.77;;;27.50;74.50;;;29.49;45.37;168345.41;4979534;28;20198;-88
2022/05/18 07:42:17;;;;;;;4.32;1.77;;;27.80;74.10;;;29.65;45.41;168389.97;4978948;28;20297;-88
2022/05/18 07:44:47;;;;;;;5.78;2.17;;;27.90;74.50;;;29.82;41.69;168434.53;4986417;28;20036;-89
2022/05/18 07:47:13;;;;;;;2.47;1.48;;;28.10;67.90;;;29.69;42.79;168400.78;4984970;28;20026;-90
2022/05/18 07:49:42;;;;;;;4.75;1.65;;;28.20;68.60;;;29.76;42.46;168419.63;4977766;28;20387;-86
2022/05/18 07:52:11;;;;;;;3.40;1.25;;;28.20;68.40;;;29.16;43.61;168258.94;4978398;28;20063;-89
2022/05/18 07:54:38;;;;;;;2.88;1.60;;;28.00;67.90;;;29.54;42.52;168358.94;4977378;28;20510;-87
2022/05/18 07:57:11;;;;;;;2.67;1.40;;;28.10;67.10;;;29.22;43.14;168275.13;4977681;28;20443;-86
2022/05/18 07:59:38;;;;;;;4.93;1.60;;;28.00;67.20;;;29.46;43.76;168337.31;4978639;28;20431;-87
2022/05/18 08:02:05;;;;;;;4.32;1.63;;;28.10;68.00;;;29.73;41.12;168411.53;4978977;28;20027;-86
2022/05/18 08:04:31;;;;;;;3.38;1.50;;;28.20;65.20;;;29.62;42.50;168381.88;4977717;28;20023;-87
2022/05/18 08:06:59;;;;;;;2.38;1.40;;;28.20;67.20;;;29.54;41.94;168360.25;4978128;28;20774;-88
2022/05/18 08:09:26;;;;;;;3.88;1.30;;;28.20;65.50;;;29.10;43.07;168241.38;4977325;28;20027;-86
2022/05/18 08:17:25;;;;;;;;;;;28.40;63.30;;;29.91;40.87;168458.88;4979775;28;20037;-86
2022/05/18 08:19:52;;;;;;;6.38;2.13;;;28.40;63.60;;;29.48;41.38;168342.69;4994007;28;19910;-89
2022/05/18 08:22:19;;;;;;;2.78;1.98;;;28.30;63.50;;;29.54;42.39;168360.25;4978464;28;20574;-86
2022/05/18 08:24:46;;;;;;;4.75;1.55;;;28.20;65.40;;;29.71;41.48;168404.81;4981749;28;20037;-89
2022/05/18 08:27:16;;;;;;;4.57;1.60;;;28.30;64.00;;;29.72;40.37;168407.50;4978963;28;20414;-88
2022/05/18 08:29:44;;;;;;;6.15;1.70;;;28.40;62.00;;;29.94;40.88;168465.63;4994403;28;20038;-89
2022/05/18 08:32:11;;;;;;;3.55;1.60;;;28.60;63.20;;;29.83;40.90;168435.94;4976870;28;20041;-89
2022/05/18 08:34:38;;;;;;;4.38;1.52;;;28.50;62.50;;;30.19;39.97;168534.50;4993445;28;20035;-90
2022/05/18 08:37:05;;;;;;;5.22;1.67;;;28.70;62.00;;;30.17;40.88;168527.75;4978271;28;20372;-88
2022/05/18 08:39:33;;;;;;;5.28;2.17;;;28.70;63.20;;;30.15;41.04;168523.69;4977430;28;20105;-88
2022/05/18 08:42:01;;;;;;;4.32;1.60;;;28.80;62.80;;;30.61;40.17;168645.31;4978262;28;20086;-87
2022/05/18 08:44:34;;;;;;;3.67;1.65;;;29.00;62.80;;;30.48;39.62;168610.19;4993140;28;20035;-89
2022/05/18 08:47:40;;;;;;;6.15;2.10;;;29.00;61.20;;;30.62;40.74;168649.38;4978602;28;20023;-89
2022/05/18 08:50:20;;;;;;;3.65;1.50;;;29.20;62.40;;;31.01;39.92;168752.09;4977516;28;20031;-87
2022/05/18 08:53:17;;;;;;;5.85;1.77;;;29.40;62.50;;;31.32;38.24;168835.84;4994737;28;20039;-90
2022/05/18 08:56:29;;;;;;;5.85;2.47;;;29.60;60.00;;;31.14;38.72;168788.59;4977320;28;20031;-85
2022/05/18 08:58:57;;;;;;;3.90;1.85;;;29.60;60.30;;;31.78;38.10;168960.25;4979074;28;20031;-86
2022/05/18 09:01:35;;;;;;;3.63;1.45;;;29.80;60.00;;;32.18;36.90;169067.06;4977389;28;20046;-86
2022/05/18 09:04:28;;;;;;;6.18;1.77;;;30.10;59.50;;;32.65;35.64;169192.88;4976462;28;20031;-87
2022/05/18 09:07:13;;;;;;;4.78;1.77;;;30.40;58.40;;;31.97;36.98;169010.25;4977814;28;20062;-86
2022/05/18 09:10:14;;;;;;;3.57;1.90;;;30.40;58.00;;;31.81;37.47;168968.38;4978316;28;20097;-85
2022/05/18 17:31:58;;;;;;;3.05;1.30;;;27.20;57.30;;;28.50;39.07;168082.09;4973065;28;20051;-83
2022/05/18 17:34:25;;;;;;;2.80;1.65;;;27.20;57.90;;;28.45;39.67;168068.56;4973449;28;20066;-87
2022/05/18 17:36:53;;;;;;;2.50;1.40;;;27.10;58.10;;;28.42;39.42;168059.13;4989694;28;20027;-88
2022/05/18 17:39:19;;;;;;;2.92;1.40;;;27.10;58.10;;;28.32;39.43;168033.47;4972625;28;20038;-87
2022/05/18 17:41:45;;;;;;;2.53;1.33;;;27.00;58.30;;;28.30;39.94;168028.09;4988778;28;20026;-86
2022/05/18 17:44:11;;;;;;;3.60;1.88;;;27.00;58.80;;;28.21;40.65;168003.81;4988528;28;20069;-87
2022/05/18 17:46:37;;;;;;;5.32;1.90;;;26.90;59.60;;;28.19;40.94;167999.75;4984300;28;20448;-86
2022/05/18 17:49:03;;;;;;;4.63;2.40;;;26.80;59.80;;;28.20;40.70;168001.13;4953310;29;20149;-86
2022/05/18 17:51:29;;;;;;;3.15;2.40;;;26.90;59.60;;;28.16;40.41;167991.66;4953456;29;20023;-88
2022/05/18 17:53:54;;;;;;;6.07;2.00;;;26.90;59.10;;;28.20;40.35;168001.13;4955703;28;20484;-86
2022/05/18 17:56:20;;;;;;;4.93;2.13;;;26.90;59.00;;;28.18;40.51;167995.72;4956751;29;20036;-86
2022/05/18 17:58:46;;;;;;;2.78;2.20;;;26.90;59.10;;;28.16;40.47;167990.31;4956078;29;20050;-84
2022/05/18 18:01:22;;;;;;;5.85;2.60;;;26.90;59.20;;;28.13;40.45;167983.56;4957096;29;20034;-86
2022/05/18 18:03:56;;;;;;;3.17;2.20;;;26.90;59.20;;;28.08;40.75;167968.75;4956499;28;20122;-82
2022/05/18 18:06:38;;;;;;;5.22;2.90;;;26.80;59.60;;;27.98;41.12;167941.69;4957461;29;20458;-90
2022/05/18 18:09:06;;;;;;;5.63;2.53;;;26.80;60.10;;;27.91;41.89;167922.81;4958513;29;20031;-90
2022/05/18 18:11:42;;;;;;;4.68;2.22;;;26.60;60.70;;;27.87;42.11;167913.34;4957892;29;20058;-86
2022/05/18 18:14:31;;;;;;;;;;;26.50;61.80;;;27.72;43.62;167874.25;4958651;28;20027;-90
2022/05/18 18:17:02;;;;;;;3.10;2.20;;;26.40;63.10;;;27.61;43.23;167844.56;4958081;29;19925;-88
2022/05/18 18:19:34;;;;;;;3.53;1.90;;;26.40;62.50;;;27.54;43.38;167825.72;4958015;29;20037;-89
2022/05/18 18:22:00;;;;;;;3.97;2.28;;;26.20;62.30;;;27.48;43.72;167809.53;4958198;28;20031;-88
2022/05/18 18:24:28;;;;;;;2.40;1.60;;;26.30;63.40;;;27.48;42.94;167808.16;4959052;29;20023;-91
2022/05/18 18:27:58;;;;;;;2.17;1.52;;;26.30;62.10;;;27.51;43.62;167816.25;4959550;29;20067;-89
2022/05/18 18:30:24;;;;;;;4.82;2.20;;;26.20;62.20;;;27.45;43.60;167800.09;4958987;28;20035;-86
2022/05/18 18:32:56;;;;;;;6.72;1.95;;;26.20;63.10;;;27.33;44.60;167768.97;4975574;28;20031;-86
2022/05/18 18:35:26;;;;;;;6.25;3.10;;;26.10;65.60;;;27.19;46.50;167731.25;4959415;29;20041;-89
2022/05/18 18:41:10;;;;;;;12.35;6.85;;;25.70;68.40;;;26.68;49.74;167596.31;4978767;28;20043;-87
2022/05/18 18:43:53;;;;;;;4.82;3.65;;;25.50;71.40;;;26.42;51.80;167526.25;4978035;28;20027;-86
2022/05/18 18:46:50;;;;;;;5.30;3.20;;;25.20;74.10;;;26.22;52.78;167472.31;4995410;28;20095;-84
2022/05/18 18:49:21;;;;;;;5.97;2.63;;;25.00;74.70;;;26.03;51.48;167422.41;4969831;28;20035;-85
2022/05/18 18:55:03;;;;;;;5.25;2.92;;;24.80;74.70;;;25.98;51.74;167408.88;4962725;29;20042;-87
2022/05/18 18:57:43;;;;;;;6.60;2.88;;;24.80;76.60;;;25.98;51.15;167407.53;4961334;29;20023;-87
2022/05/18 19:00:21;;;;;;;7.03;2.85;;;24.80;76.00;;;25.95;51.43;167399.44;4955293;29;20102;-88
2022/05/18 19:02:48;;;;;;;7.45;3.05;;;24.80;78.00;;;25.88;52.11;167380.63;4955521;28;20399;-88